Flight Track Log - Related Links

Times and Time Zones

All times are in EDT time to prevent confusion due to time zone crossing. See the BAW2648 flight status page for this flight to view local times or setup timezone preferences in your user account.

Time Position Orientation Groundspeed Altitude Reporting Facility
EDT Latitude Longitude Course Direction KTS MPH feet Rate Location/Type
Sun 04:57:43 AM 51.1433 -0.2235 257° West 164 189 1,000  Level FlightAware UK
Sun 04:57:52 AM 51.1422 -0.2312 257° West 164 189 1,400 1,714 Climbing FlightAware ADS-B (EGLF / FAB)
Sun 04:58:11 AM 51.1390 -0.2560 259° West 186 214 1,800 1,200 Climbing FlightAware ADS-B
Sun 04:58:32 AM 51.1378 -0.2862 280° West 212 244 2,200 1,200 Climbing FlightAware ADS-B (EGLF / FAB)
Sun 04:58:36 AM 51.1389 -0.2925 289° West 214 246 2,300 1,200 Climbing FlightAware ADS-B
Sun 04:58:42 AM 51.1417 -0.3011 302° West 221 254 2,400 1,412 Climbing FlightAware ADS-B (EGLF / FAB)
Sun 04:58:53 AM 51.1546 -0.3174 324° Northwest 234 269 2,700 1,500 Climbing FlightAware ADS-B
Sun 04:59:02 AM 51.1576 -0.3189 347° North 241 277 2,900 2,000 Climbing FlightAware ADS-B (EGLF / FAB)
Sun 04:59:08 AM 51.1660 -0.3205 357° North 242 278 3,200 3,333 Climbing FlightAware ADS-B
Sun 04:59:11 AM 51.1696 -0.3200 North 243 280 3,400 4,000 Climbing FlightAware ADS-B
Sun 04:59:14 AM 51.1729 -0.3190 12° North 246 283 3,600 3,429 Climbing FlightAware ADS-B
Sun 04:59:18 AM 51.1779 -0.3163 19° North 249 287 3,800 2,250 Climbing FlightAware ADS-B
Sun 04:59:22 AM 51.1813 -0.3138 27° Northeast 254 292 3,900 2,400 Climbing FlightAware ADS-B
Sun 04:59:23 AM 51.1827 -0.3124 32° Northeast 249 287 4,000 4,000 Climbing FlightAware ADS-B (EGHI / SOU)
Sun 04:59:25 AM 51.1849 -0.3101 35° Northeast 258 297 4,100 3,600 Climbing FlightAware ADS-B
Sun 04:59:28 AM 51.1877 -0.3065 41° Northeast 261 300 4,300 3,750 Climbing FlightAware ADS-B
Sun 04:59:33 AM 51.1915 -0.3001 49° Northeast 264 304 4,600 3,333 Climbing FlightAware ADS-B
Sun 04:59:37 AM 51.1947 -0.2930 57° Northeast 270 311 4,800 3,000 Climbing FlightAware ADS-B
Sun 04:59:41 AM 51.1971 -0.2864 62° Northeast 274 315 5,000 2,400 Climbing FlightAware ADS-B
Sun 04:59:42 AM 51.1971 -0.2864 62° Northeast 274 315 5,000 2,000 Level FlightAware ADS-B (EGLF / FAB)
Sun 04:59:44 AM 51.1988 -0.2809 66° East 278 320 5,100 2,571 Climbing FlightAware ADS-B
Sun 04:59:49 AM 51.2014 -0.2705 70° East 283 326 5,300 1,579 Climbing FlightAware ADS-B
Sun 05:00:03 AM 51.2070 -0.2430 74° East 283 326 5,600 1,125 Climbing FlightAware ADS-B (EGHI / SOU)
Sun 05:00:05 AM 51.2079 -0.2390 72° East 286 329 5,600  Level FlightAware ADS-B
Sun 05:00:06 AM 51.2079 -0.2389 74° East 284 327 5,600 375 Level FlightAware ADS-B (KSCH)
Sun 05:00:21 AM 51.2144 -0.2065 72° East 287 330 5,700 375 Climbing FlightAware ADS-B
Sun 05:00:22 AM 51.2144 -0.2065 72° East 287 330 5,700 1,333 Level FlightAware ADS-B (EGLF / FAB)
Sun 05:00:39 AM 51.2215 -0.1715 72° East 289 333 6,100 1,429 Climbing FlightAware ADS-B
Sun 05:00:43 AM 51.2231 -0.1634 73° East 288 331 6,200 3,000 Climbing FlightAware ADS-B (EGHI / SOU)
Sun 05:00:51 AM 51.2265 -0.1475 73° East 290 334 6,700 3,273 Climbing FlightAware ADS-B (KSCH)
Sun 05:00:54 AM 51.2278 -0.1414 71° East 292 336 6,800 3,200 Climbing FlightAware ADS-B
Sun 05:01:06 AM 51.2331 -0.1167 71° East 291 335 7,500 3,600 Climbing FlightAware ADS-B (KSCH)
Sun 05:01:09 AM 51.2345 -0.1102 71° East 291 335 7,700 3,500 Climbing FlightAware ADS-B
Sun 05:01:18 AM 51.2384 -0.0919 73° East 290 334 8,200 3,375 Climbing FlightAware ADS-B (KSCH)
Sun 05:01:25 AM 51.2413 -0.0780 72° East 293 337 8,600 3,333 Climbing FlightAware ADS-B
Sun 05:01:27 AM 51.2422 -0.0735 74° East 292 336 8,700 3,000 Climbing FlightAware ADS-B (LKVR)
Sun 05:01:31 AM 51.2439 -0.0644 74° East 294 338 8,900 2,182 Climbing FlightAware ADS-B (KSCH)
Sun 05:01:38 AM 51.2464 -0.0514 75° East 297 342 9,100 2,400 Climbing FlightAware ADS-B (LKVR)
Sun 05:01:41 AM 51.2480 -0.0434 73° East 301 346 9,300 2,824 Climbing FlightAware ADS-B
Sun 05:01:55 AM 51.2535 -0.0134 74° East 304 350 9,900 3,143 Climbing FlightAware ADS-B (KSCH)
Sun 05:02:02 AM 51.2573 0.0087 75° East 307 353 10,400 2,471 Climbing FlightAware ADS-B
Sun 05:02:12 AM 51.2596 0.0223 75° East 312 359 10,600 900 Climbing FlightAware ADS-B
Sun 05:02:22 AM 51.2636 0.0455 76° East 324 373 10,700 947 Climbing FlightAware ADS-B (EGHI / SOU)
Sun 05:02:31 AM 51.2671 0.0653 75° East 333 383 10,900 1,200 Climbing FlightAware ADS-B (EGLF / FAB)
Sun 05:02:42 AM 51.2722 0.0941 74° East 350 403 11,100 1,600 Climbing FlightAware ADS-B
Sun 05:03:01 AM 51.2806 0.1413 74° East 363 418 11,700 2,000 Climbing FlightAware ADS-B (EGHI / SOU)
Sun 05:03:12 AM 51.2859 0.1708 74° East 369 425 12,100 1,500 Climbing FlightAware ADS-B
Sun 05:03:25 AM 51.2912 0.1994 74° East 373 429 12,300 1,429 Climbing FlightAware ADS-B (EGLC / LCY)
Sun 05:03:33 AM 51.2962 0.2265 75° East 385 443 12,600 2,471 Climbing FlightAware ADS-B (KSCH)
Sun 05:03:42 AM 51.3009 0.2522 73° East 387 445 13,000 2,308 Climbing FlightAware ADS-B
Sun 05:03:46 AM 51.3024 0.2599 73° East 388 447 13,100 2,129 Climbing FlightAware ADS-B
Sun 05:04:13 AM 51.3171 0.3373 73° East 396 456 14,100 2,200 Climbing FlightAware ADS-B
Sun 05:04:16 AM 51.3186 0.3452 73° East 397 457 14,200 2,444 Climbing FlightAware ADS-B
Sun 05:04:40 AM 51.3312 0.4118 74° East 401 461 15,200 2,667 Climbing FlightAware ADS-B
Sun 05:04:43 AM 51.3327 0.4221 78° East 403 464 15,400 3,000 Climbing FlightAware ADS-B
Sun 05:04:44 AM 51.3329 0.4239 79° East 403 464 15,400 1,714 Level FlightAware ADS-B (EGLC / LCY)
Sun 05:04:50 AM 51.3344 0.4422 85° East 407 468 15,600 2,250 Climbing FlightAware ADS-B
Sun 05:04:52 AM 51.3346 0.4470 86° East 408 470 15,700 3,000 Climbing FlightAware ADS-B (EGLC / LCY)
Sun 05:04:56 AM 51.3347 0.4610 91° East 411 473 15,900 2,571 Climbing FlightAware ADS-B
Sun 05:04:59 AM 51.3345 0.4670 91° East 411 473 16,000 1,200 Climbing FlightAware ADS-B
Sun 05:05:01 AM 51.3340 0.4762 96° East 415 478 16,000 2,323 Level FlightAware ADS-B
Sun 05:05:30 AM 51.3256 0.5617 99° East 416 479 17,200 2,323 Climbing FlightAware ADS-B (EGLC / LCY)
Sun 05:05:32 AM 51.3248 0.5690 99° East 417 480 17,200 1,600 Level FlightAware ADS-B
Sun 05:06:00 AM 51.3163 0.6525 99° East 424 488 18,000 1,742 Climbing FlightAware ADS-B
Sun 05:06:03 AM 51.3150 0.6649 99° East 424 488 18,100 1,875 Climbing FlightAware ADS-B
Sun 05:06:32 AM 51.3061 0.7526 99° East 430 495 19,000 1,895 Climbing FlightAware ADS-B (EGLF / FAB)
Sun 05:06:41 AM 51.3031 0.7814 99° East 432 497 19,300 1,800 Climbing FlightAware ADS-B
Sun 05:07:02 AM 51.2969 0.8414 99° East 436 502 19,900 1,742 Climbing FlightAware ADS-B (EGLF / FAB)
Sun 05:07:12 AM 51.2930 0.8794 99° East 437 503 20,200 1,765 Climbing FlightAware ADS-B
Sun 05:07:19 AM 51.2906 0.9022 98° East 436 502 20,400 2,000 Climbing FlightAware ADS-B (KSCH)
Sun 05:07:30 AM 51.2868 0.9385 98° East 437 503 20,800 1,875 Climbing FlightAware ADS-B (KSCH)
Sun 05:07:35 AM 51.2853 0.9525 98° East 438 504 20,900 1,200 Climbing FlightAware ADS-B
Sun 05:07:40 AM 51.2841 0.9647 100° East 440 506 21,000 1,714 Climbing FlightAware ADS-B (EGLC / LCY)
Sun 05:07:42 AM 51.2829 0.9762 100° East 440 506 21,100 1,200 Climbing FlightAware ADS-B
Sun 05:07:45 AM 51.2821 0.9833 99° East 440 506 21,100 1,385 Level FlightAware ADS-B
Sun 05:07:55 AM 51.2785 1.0173 99° East 442 509 21,400 1,600 Climbing FlightAware ADS-B
Sun 05:08:00 AM 51.2769 1.0335 98° East 444 511 21,500 1,500 Climbing FlightAware ADS-B (EGHI / SOU)
Sun 05:08:07 AM 51.2745 1.0554 99° East 445 512 21,700 1,667 Climbing FlightAware ADS-B (KSCH)
Sun 05:08:18 AM 51.2705 1.0938 100° East 447 514 22,000 1,667 Climbing FlightAware ADS-B
Sun 05:08:25 AM 51.2682 1.1152 99° East 446 513 22,200 1,588 Climbing FlightAware ADS-B
Sun 05:08:52 AM 51.2589 1.2023 100° East 448 516 22,900 1,500 Climbing FlightAware ADS-B
Sun 05:08:57 AM 51.2570 1.2200 99° East 450 518 23,000 750 Climbing FlightAware ADS-B (KSCH)
Sun 05:09:08 AM 51.2531 1.2563 99° East 455 524 23,100 1,286 Climbing FlightAware ADS-B (KSCH)
Sun 05:09:25 AM 51.2472 1.3115 100° East 459 528 23,600 1,532 Climbing FlightAware ADS-B
Sun 05:09:55 AM 51.2361 1.4139 100° East 464 534 24,300 1,452 Climbing FlightAware ADS-B
Sun 05:10:27 AM 51.2219 1.5187 107° East 474 545 25,100 1,588 Climbing FlightAware ADS-B
Sun 05:10:29 AM 51.2219 1.5187 108° East 475 547 25,200 1,333 Climbing FlightAware ADS-B (EGLF / FAB)
Sun 05:10:36 AM 51.2147 1.5511 111° Southeast 478 550 25,300 1,091 Climbing FlightAware ADS-B
Sun 05:10:40 AM 51.2120 1.5615 112° Southeast 480 552 25,400 857 Climbing FlightAware ADS-B (EGLC / LCY)
Sun 05:10:43 AM 51.2096 1.5707 112° Southeast 478 550 25,400 1,200 Level FlightAware ADS-B
Sun 05:10:50 AM 51.2120 1.5615 113° Southeast 482 555 25,600 1,600 Climbing FlightAware ADS-B (EGLC / LCY)
Sun 05:10:58 AM 51.2011 1.6019 113° Southeast 483 556 25,800 1,059 Climbing FlightAware ADS-B
Sun 05:11:07 AM 51.1877 1.6508 114° Southeast 485 558 25,900 938 Climbing FlightAware ADS-B
Sun 05:11:30 AM 51.1730 1.7047 114° Southeast 492 566 26,300 1,000 Climbing FlightAware ADS-B (EGLF / FAB)
Sun 05:11:37 AM 51.1607 1.7497 114° Southeast 492 566 26,400 1,125 Climbing FlightAware ADS-B
Sun 05:12:02 AM 51.1393 1.8273 114° Southeast 496 571 26,900 1,286 Climbing FlightAware ADS-B (EGLF / FAB)
Sun 05:12:05 AM 51.1393 1.8273 114° Southeast 497 572 27,000 1,333 Climbing FlightAware ADS-B
Sun 05:12:11 AM 51.1294 1.8634 114° Southeast 497 572 27,100 1,500 Climbing FlightAware ADS-B
Sun 05:12:13 AM 51.1299 1.8614 114° Southeast 498 573 27,200 800 Climbing FlightAware ADS-B (EGLC / LCY)
Sun 05:12:26 AM 51.1155 1.9137 113° Southeast 497 572 27,300 800 Climbing FlightAware ADS-B (KSCH)
Sun 05:12:43 AM 51.1001 1.9695 114° Southeast 501 577 27,600 1,333 Climbing FlightAware ADS-B
Sun 05:12:44 AM 51.0991 1.9729 113° Southeast 499 574 27,700 1,286 Climbing FlightAware ADS-B (EGHI / SOU)
Sun 05:12:57 AM 51.0865 2.0189 113° Southeast 501 577 27,900 1,091 Climbing FlightAware ADS-B (EGHH / BOH)
Sun 05:13:17 AM 51.0684 2.0840 114° Southeast 506 582 28,300 1,200 Climbing FlightAware ADS-B
Sun 05:13:32 AM 51.0557 2.1294 114° Southeast 505 581 28,600 1,154 Climbing FlightAware ADS-B (EGLF / FAB)
Sun 05:13:43 AM 51.0434 2.1734 113° Southeast 504 580 28,800 1,024 Climbing FlightAware ADS-B
Sun 05:14:13 AM 51.0150 2.2748 114° Southeast 509 586 29,300 909 Climbing FlightAware ADS-B
Sun 05:14:16 AM 51.0121 2.2850 114° Southeast 506 582 29,300 968 Level FlightAware ADS-B
Sun 05:14:44 AM 50.9855 2.3792 114° Southeast 512 589 29,800 1,322 Climbing FlightAware ADS-B (KSCH)
Sun 05:15:15 AM 50.9555 2.4854 114° Southeast 507 583 30,600 1,393 Climbing FlightAware ADS-B
Sun 05:15:40 AM 50.9310 2.5714 115° Southeast 504 580 31,100 1,071 Climbing FlightAware ADS-B (EGHH / BOH)
Sun 05:16:11 AM 50.9040 2.6654 114° Southeast 504 580 31,600 1,082 Climbing FlightAware ADS-B
Sun 05:16:41 AM 50.8732 2.7734 114° Southeast 504 580 32,200 1,636 Climbing FlightAware ADS-B (KSCH)
Sun 05:16:55 AM 50.8592 2.8223 115° Southeast 502 578 32,800 1,000 Climbing FlightAware ADS-B
Sun 05:17:17 AM 50.8385 2.8945 115° Southeast 502 578 32,800 1,135 Level FlightAware ADS-B (KSCH)
Sun 05:17:32 AM 50.8456 2.8699 115° Southeast 499 574 33,500 1,132 Climbing FlightAware ADS-B (EGLF / FAB)
Sun 05:18:10 AM 50.7963 3.0407 115° Southeast 499 574 33,800 706 Climbing FlightAware ADS-B
Sun 05:18:40 AM 50.7599 3.1661 115° Southeast 497 572 34,300 957 Climbing FlightAware ADS-B (EGLF / FAB)
Sun 05:19:19 AM 50.7243 3.2877 115° Southeast 497 572 34,900 583 Climbing FlightAware ADS-B
Sun 05:19:52 AM 50.6903 3.4034 115° Southeast 493 567 35,000 74 Climbing FlightAware ADS-B (EGLF / FAB)
Sun 05:20:40 AM 50.6475 3.5482 115° Southeast 494 568 35,000  Level FlightAware ADS-B
Sun 05:21:18 AM 50.6210 3.6374 115° Southeast 496 571 35,000  Level FlightAware ADS-B
Sun 05:21:52 AM 50.5768 3.7855 115° Southeast 494 568 35,000  Level FlightAware ADS-B
Sun 05:22:23 AM 50.5600 3.8417 115° Southeast 493 567 35,000  Level FlightAware ADS-B
Sun 05:23:06 AM 50.5293 3.9439 115° Southeast 494 568 35,000  Level FlightAware ADS-B (EGLF / FAB)
Sun 05:23:40 AM 50.4715 4.1352 115° Southeast 494 568 35,000  Level FlightAware ADS-B
Sun 05:23:44 AM 50.4648 4.1572 115° Southeast 494 568 35,000  Level FlightAware ADS-B
Sun 05:23:58 AM 50.4523 4.1984 115° Southeast 494 568 35,000  Level FlightAware ADS-B
Sun 05:24:28 AM 50.4233 4.2936 116° Southeast 493 567 35,000  Level FlightAware ADS-B
Sun 05:25:05 AM 50.4099 4.3374 116° Southeast 493 567 35,000  Level FlightAware ADS-B
Sun 05:25:39 AM 50.3492 4.5339 116° Southeast 521 600 35,000  Level FlightAware UK
Sun 05:25:44 AM 50.3576 4.5078 116° Southeast 494 568 35,000  Level FlightAware ADS-B
Sun 05:25:58 AM 50.3346 4.5823 115° Southeast 492 566 35,000  Level FlightAware ADS-B
Sun 05:26:31 AM 50.2998 4.6946 116° Southeast 494 568 35,000  Level FlightAware ADS-B
Sun 05:27:06 AM 50.2958 4.7074 116° Southeast 494 568 35,000  Level FlightAware ADS-B
Sun 05:27:40 AM 50.2324 4.9110 115° Southeast 492 566 35,000  Level FlightAware ADS-B
Sun 05:28:40 AM 50.1730 5.0997 115° Southeast 493 567 35,000  Level FlightAware ADS-B
Sun 05:28:47 AM 50.1670 5.1188 115° Southeast 492 566 35,000  Level FlightAware ADS-B
Sun 05:29:17 AM 50.1378 5.2107 115° Southeast 492 566 35,000  Level FlightAware ADS-B
Sun 05:29:55 AM 50.1089 5.3017 116° Southeast 495 570 35,000  Level FlightAware ADS-B
Sun 05:30:25 AM 50.0671 5.4326 116° Southeast 490 564 35,000  Level FlightAware ADS-B
Sun 05:30:30 AM 50.0596 5.4560 117° Southeast 494 568 35,000  Level FlightAware ADS-B
Sun 05:31:05 AM 50.0262 5.5601 117° Southeast 495 570 35,000  Level FlightAware ADS-B
Sun 05:31:19 AM 50.0107 5.6083 116° Southeast 492 566 35,000  Level FlightAware ADS-B
Sun 05:31:56 AM 49.9796 5.7048 117° Southeast 497 572 35,000  Level FlightAware ADS-B
Sun 05:32:26 AM 49.9499 5.7963 117° Southeast 497 572 35,000  Level FlightAware ADS-B
Sun 05:33:02 AM 49.9065 5.9298 117° Southeast 499 574 35,000  Level FlightAware ADS-B
Sun 05:34:15 AM 49.8923 5.9731 117° Southeast 499 574 35,000  Level FlightAware ADS-B
Sun 05:35:45 AM 49.8776 6.0183 117° Southeast 501 577 35,000  Level FlightAware ADS-B
Sun 05:37:42 AM 49.7316 6.4597 117° Southeast 499 574 35,000  Level FlightAware ADS-B
Sun 05:39:41 AM 49.6341 6.7504 118° Southeast 497 572 35,000  Level FlightAware ADS-B
Sun 05:40:36 AM 49.7316 6.4597 118° Southeast 498 573 35,000  Level FlightAware ADS-B
Sun 05:42:03 AM 49.6341 6.7504 118° Southeast 497 572 35,000  Level FlightAware ADS-B
Sun 05:43:00 AM 49.6341 6.7504 118° Southeast 502 578 35,000  Level FlightAware ADS-B
Sun 05:48:38 AM 48.8241 8.7837 141° Southeast 509 586 35,000  Level FlightAware ADS-B (KGHG)
Sun 05:49:10 AM 48.7520 8.8707 142° Southeast 510 587 35,000  Level FlightAware ADS-B (KGHG)
Sun 05:49:50 AM 48.6928 8.9420 142° Southeast 510 587 35,000  Level FlightAware ADS-B (KGHG)
Sun 05:50:20 AM 48.6231 9.0254 142° Southeast 510 587 35,000  Level FlightAware ADS-B (KGHG)
Sun 05:50:50 AM 48.5718 9.0867 142° Southeast 510 587 35,000  Level FlightAware ADS-B (KGHG)
Sun 05:51:25 AM 48.5349 9.1307 142° Southeast 510 587 35,000  Level FlightAware ADS-B (EDDM / MUC)
Sun 05:51:55 AM 48.4639 9.2151 142° Southeast 512 589 35,000  Level FlightAware ADS-B (EDDM / MUC)
Sun 05:52:36 AM 48.3844 9.3073 144° Southeast 514 592 35,000  Level FlightAware ADS-B (EDDM / MUC)
Sun 05:53:16 AM 48.3802 9.3119 144° Southeast 513 590 35,000  Level FlightAware ADS-B (EDDM / MUC)
Sun 05:54:07 AM 48.2095 9.4969 144° Southeast 512 589 35,000  Level FlightAware ADS-B (EDDM / MUC)
Sun 05:54:43 AM 48.1397 9.5723 144° Southeast 513 590 35,000  Level FlightAware ADS-B (EDDM / MUC)
Sun 05:55:17 AM 48.0759 9.6410 144° Southeast 514 592 35,000  Level FlightAware ADS-B (EDDM / MUC)
Sun 05:55:48 AM 48.0593 9.6587 144° Southeast 513 590 35,000  Level FlightAware ADS-B (EDDM / MUC)
Sun 05:56:39 AM 47.9274 9.7997 144° Southeast 513 590 35,000  Level FlightAware ADS-B (EDDM / MUC)
Sun 05:57:13 AM 47.8562 9.8754 144° Southeast 510 587 35,000  Level FlightAware ADS-B (EDDM / MUC)
Sun 05:57:43 AM 47.7925 9.9431 144° Southeast 510 587 35,000  Level FlightAware ADS-B (EDDM / MUC)
Sun 05:58:21 AM 47.7332 10.0058 145° Southeast 508 585 35,000  Level FlightAware ADS-B (KGHG)
Sun 05:58:55 AM 47.6565 10.0865 145° Southeast 509 586 35,000  Level FlightAware ADS-B (EDDM / MUC)
Sun 05:59:26 AM 47.6006 10.1451 145° Southeast 508 585 35,000  Level FlightAware ADS-B (EDDM / MUC)
Sun 05:59:58 AM 47.5451 10.2033 145° Southeast 508 585 35,000  Level FlightAware ADS-B (EDDM / MUC)
Sun 06:00:38 AM 47.4610 10.2911 145° Southeast 506 582 35,000  Level FlightAware ADS-B (EDDM / MUC)
Sun 06:01:16 AM 47.3850 10.3702 145° Southeast 507 583 35,000  Level FlightAware ADS-B (EDDM / MUC)
Sun 06:01:55 AM 47.3105 10.4474 145° Southeast 510 587 35,000  Level FlightAware ADS-B (EDDM / MUC)
Sun 06:02:33 AM 47.2386 10.5216 145° Southeast 508 585 35,000  Level FlightAware ADS-B (EDDM / MUC)
Sun 06:03:09 AM 47.1704 10.5917 145° Southeast 510 587 35,000  Level FlightAware ADS-B (EDDM / MUC)
Sun 06:03:46 AM 47.0977 10.6664 145° Southeast 508 585 35,000  Level FlightAware ADS-B (EDDM / MUC)
Sun 06:03:57 AM 47.0759 10.6889 143° Southeast 508 585 35,000  Level FlightAware ADS-B (ETSE)
Sun 06:04:19 AM 47.0480 10.7203 143° Southeast 509 586 35,000  Level FlightAware ADS-B (EDDM / MUC)
Sun 06:04:30 AM 47.0480 10.7203 138° Southeast 508 585 35,000  Level FlightAware ADS-B (EDDM / MUC)
Sun 06:05:01 AM 46.9650 10.8347 133° Southeast 504 580 35,000 85 Level FlightAware ADS-B (EDDM / MUC)
Sun 06:05:41 AM 46.9035 10.9315 133° Southeast 502 578 35,100 85 Climbing FlightAware ADS-B (EDDM / MUC)
Sun 06:06:12 AM 46.8544 11.0085 133° Southeast 500 575 35,100 -79 Level FlightAware ADS-B (EDDM / MUC)
Sun 06:06:57 AM 46.7812 11.1223 133° Southeast 499 574 35,000 -79 Descending FlightAware ADS-B (EDDM / MUC)
Sun 06:07:28 AM 46.7326 11.1982 133° Southeast 499 574 35,000  Level FlightAware ADS-B (EDDM / MUC)
Sun 06:08:02 AM 46.6927 11.2604 133° Southeast 497 572 35,000  Level FlightAware ADS-B (EDDM / MUC)
Sun 06:08:32 AM 46.6315 11.3553 133° Southeast 502 578 35,000 83 Level FlightAware ADS-B (EDDM / MUC)
Sun 06:09:14 AM 46.5649 11.4580 133° Southeast 494 568 35,100  Climbing FlightAware ADS-B (EDDM / MUC)
Sun 06:09:45 AM 46.5177 11.5306 133° Southeast 494 568 35,000 -82 Descending FlightAware ADS-B (EDDM / MUC)
Sun 06:10:27 AM 46.4516 11.6320 133° Southeast 494 568 35,000 63 Level FlightAware ADS-B (EDDM / MUC)
Sun 06:11:20 AM 46.3677 11.7601 133° Southeast 489 563 35,100  Climbing FlightAware ADS-B (EDDM / MUC)
Sun 06:12:00 AM 46.3070 11.8523 134° Southeast 494 568 35,000 -86 Descending FlightAware ADS-B (EDDM / MUC)
Sun 06:12:30 AM 46.2739 11.9027 134° Southeast 494 568 35,000  Level FlightAware ADS-B (ETSE)
Sun 06:13:18 AM 46.1844 12.0380 134° Southeast 489 563 35,000  Level FlightAware ADS-B (EDDM / MUC)
Sun 06:13:59 AM 46.1212 12.1332 134° Southeast 492 566 35,000  Level FlightAware ADS-B (EDDM / MUC)
Sun 06:14:29 AM 46.0762 12.2008 134° Southeast 492 566 35,000  Level FlightAware ADS-B (EDDM / MUC)
Sun 06:15:09 AM 46.0093 12.3010 134° Southeast 489 563 35,000  Level FlightAware ADS-B (EDDM / MUC)
Sun 06:15:48 AM 45.9528 12.3850 134° Southeast 489 563 35,000  Level FlightAware ADS-B (EDDM / MUC)
Sun 06:16:29 AM 45.8855 12.4850 134° Southeast 494 568 35,000  Level FlightAware ADS-B (EDDM / MUC)
Sun 06:16:59 AM 45.8367 12.5573 134° Southeast 494 568 35,000  Level FlightAware ADS-B (EDDM / MUC)
Sun 06:17:32 AM 45.7858 12.6325 134° Southeast 497 572 35,000  Level FlightAware ADS-B (EDDM / MUC)
Sun 06:18:09 AM 45.7253 12.7215 134° Southeast 497 572 35,000  Level FlightAware ADS-B (ETSE)
Sun 06:18:40 AM 45.6962 12.7643 134° Southeast 497 572 35,000 71 Level FlightAware ADS-B (EDDM / MUC)
Sun 06:19:34 AM 45.5917 12.9172 134° Southeast 496 571 35,100  Climbing FlightAware ADS-B (EDDM / MUC)
Sun 06:20:55 AM 45.5843 12.9280 132° Southeast 495 570 35,000 -49 Descending FlightAware ADS-B (EDDM / MUC)
Sun 06:21:36 AM 45.5843 12.9280 127° Southeast 490 564 35,000  Level FlightAware ADS-B (EDDM / MUC)
Sun 06:24:00 AM 45.4314 13.2075 128° Southeast  Level Estimated
Sun 06:25:00 AM 45.3676 13.3235 128° Southeast  Level Estimated
Sun 06:26:00 AM 45.3036 13.4393 128° Southeast  Level Estimated
Sun 06:27:00 AM 45.2395 13.5548 128° Southeast  Level Estimated
Sun 06:28:00 AM 45.1752 13.6700 128° Southeast  Level Estimated
Sun 06:29:00 AM 45.1109 13.7850 128° Southeast  Level Estimated
Sun 06:30:00 AM 45.0464 13.8997 128° Southeast  Level Estimated
Sun 06:31:00 AM 44.9819 14.0142 129° Southeast  Level Estimated
Sun 06:32:00 AM 44.9172 14.1284 129° Southeast  Level Estimated
Sun 06:33:00 AM 44.8524 14.2423 129° Southeast  Level Estimated
Sun 06:34:00 AM 44.7875 14.3560 129° Southeast  Level Estimated
Sun 06:35:00 AM 44.7225 14.4695 129° Southeast  Level Estimated
Sun 06:36:00 AM 44.6573 14.5826 129° Southeast  Level Estimated
Sun 06:37:00 AM 44.5921 14.6956 129° Southeast  Level Estimated
Sun 06:38:00 AM 44.5267 14.8082 129° Southeast  Level Estimated
Sun 06:39:00 AM 44.4612 14.9207 129° Southeast  Level Estimated
Sun 06:40:00 AM 44.3956 15.0328 129° Southeast  Level Estimated
Sun 06:41:00 AM 44.3300 15.1447 129° Southeast  Level Estimated
Sun 06:42:00 AM 44.2642 15.2564 129° Southeast  Level Estimated
Sun 06:43:00 AM 44.1982 15.3678 130° Southeast  Level Estimated
Sun 06:44:00 AM 44.1322 15.4790 130° Southeast  Level Estimated
Sun 06:45:00 AM 44.0661 15.5899 130° Southeast  Level Estimated
Sun 06:46:00 AM 43.9999 15.7006 130° Southeast  Level Estimated
Sun 06:47:00 AM 43.9335 15.8110 130° Southeast  Level Estimated
Sun 06:48:00 AM 43.8671 15.9212 130° Southeast  Level Estimated
Sun 06:49:00 AM 43.8005 16.0311 130° Southeast  Level Estimated
Sun 06:50:00 AM 43.7339 16.1408 130° Southeast  Level Estimated
Sun 06:51:00 AM 43.6671 16.2503 130° Southeast  Level Estimated
Sun 06:52:00 AM 43.6003 16.3595 130° Southeast  Level Estimated
Sun 06:53:00 AM 43.5284 16.4764 130° Southeast  Level Estimated
Sun 06:54:00 AM 43.4565 16.5930 130° Southeast  Level Estimated
Sun 06:55:00 AM 43.3844 16.7093 130° Southeast  Level Estimated
Sun 06:56:00 AM 43.3122 16.8253 131° Southeast  Level Estimated
Sun 06:57:00 AM 43.2398 16.9411 131° Southeast  Level Estimated
Sun 06:58:00 AM 43.1674 17.0566 131° Southeast  Level Estimated
Sun 06:59:00 AM 43.0949 17.1718 131° Southeast  Level Estimated
Sun 07:00:00 AM 43.0222 17.2868 131° Southeast  Level Estimated
Sun 07:01:00 AM 42.9494 17.4015 131° Southeast  Level Estimated
Sun 07:02:00 AM 42.8765 17.5159 131° Southeast  Level Estimated
Sun 07:03:00 AM 42.8035 17.6300 131° Southeast  Level Estimated
Sun 07:04:00 AM 42.7304 17.7439 131° Southeast  Level Estimated
Sun 07:05:00 AM 42.6571 17.8575 131° Southeast  Level Estimated
Sun 07:06:00 AM 42.5838 17.9709 131° Southeast  Level Estimated
Sun 07:07:00 AM 42.5103 18.0839 131° Southeast  Level Estimated
Sun 07:08:00 AM 42.4368 18.1967 131° Southeast  Level Estimated
Sun 07:09:00 AM 42.3631 18.3093 132° Southeast  Level Estimated
Sun 07:10:00 AM 42.2893 18.4216 132° Southeast  Level Estimated
Sun 07:11:00 AM 42.2154 18.5336 132° Southeast  Level Estimated
Sun 07:12:00 AM 42.1414 18.6453 132° Southeast  Level Estimated
Sun 07:13:00 AM 42.0673 18.7568 132° Southeast  Level Estimated
Sun 07:14:00 AM 41.9930 18.8680 132° Southeast  Level Estimated
Sun 07:15:00 AM 41.9187 18.9790 132° Southeast  Level Estimated
Sun 07:16:00 AM 41.8443 19.0897 132° Southeast  Level Estimated
Sun 07:17:00 AM 41.7697 19.2002 132° Southeast  Level Estimated
Sun 07:18:00 AM 41.6951 19.3104 132° Southeast  Level Estimated
Sun 07:19:00 AM 41.6203 19.4203 132° Southeast  Level Estimated
Sun 07:20:00 AM 41.5454 19.5300 132° Southeast  Level Estimated
Sun 07:21:00 AM 41.4705 19.6394 132° Southeast  Level Estimated
Sun 07:22:00 AM 41.4147 19.7206 132° Southeast  Level Estimated

Login

Don't have an account? Register now (free) for customized features, flight alerts, and more!